createdAt,value
2018-05-13T00:00:22.552Z,16.47
2018-05-13T00:02:50.876Z,15.99
2018-05-13T00:05:19.276Z,16.43
2018-05-13T00:07:47.601Z,16.51
2018-05-13T00:10:15.928Z,16.16
2018-05-13T00:12:44.304Z,16.19
2018-05-13T00:15:12.615Z,15.97
2018-05-13T00:17:40.948Z,16.20
2018-05-13T00:20:09.250Z,16.39
2018-05-13T00:22:37.586Z,16.32
2018-05-13T00:25:06.042Z,16.02
2018-05-13T00:27:34.414Z,16.00
2018-05-13T00:30:02.697Z,15.89
2018-05-13T00:32:31.030Z,15.81
2018-05-13T00:34:59.337Z,16.14
2018-05-13T00:37:27.669Z,16.16
2018-05-13T00:39:55.974Z,15.97
2018-05-13T00:42:24.321Z,16.25
2018-05-13T00:44:52.624Z,16.25
2018-05-13T00:47:20.962Z,15.85
2018-05-13T00:49:49.264Z,15.79
2018-05-13T00:52:17.603Z,15.60
2018-05-13T00:54:55.852Z,15.75
2018-05-13T00:57:24.257Z,15.69
2018-05-13T00:59:52.553Z,15.52
2018-05-13T01:02:20.889Z,15.71
2018-05-13T01:04:49.261Z,15.74
2018-05-13T01:07:17.645Z,15.64
2018-05-13T01:09:46.369Z,15.70
2018-05-13T01:12:14.668Z,15.63
2018-05-13T01:14:43.085Z,15.34
2018-05-13T01:17:11.470Z,15.22
2018-05-13T01:19:39.883Z,15.07
2018-05-13T01:22:08.182Z,15.27
2018-05-13T01:24:36.588Z,15.31
2018-05-13T01:27:04.900Z,15.53
2018-05-13T01:29:33.224Z,15.58
2018-05-13T01:32:01.674Z,15.42
2018-05-13T01:34:30.109Z,15.05
2018-05-13T01:36:58.481Z,15.24
2018-05-13T01:39:28.152Z,15.42
2018-05-13T01:41:56.646Z,15.25
2018-05-13T01:44:24.982Z,15.18
2018-05-13T01:46:53.428Z,15.14
2018-05-13T01:49:22.793Z,15.07
2018-05-13T01:51:51.296Z,14.92
2018-05-13T01:54:19.593Z,15.06
2018-05-13T01:56:47.957Z,15.02
2018-05-13T01:59:16.277Z,14.74
2018-05-13T02:01:44.657Z,14.95
2018-05-13T02:04:13.296Z,14.91
2018-05-13T02:06:41.701Z,14.84
2018-05-13T02:09:10.065Z,15.01
2018-05-13T02:11:38.440Z,15.12
2018-05-13T02:14:06.934Z,14.82
2018-05-13T02:16:35.305Z,14.99
2018-05-13T02:19:03.940Z,14.91
2018-05-13T02:21:32.380Z,15.02
2018-05-13T02:24:01.010Z,15.01
2018-05-13T02:26:29.627Z,14.86
2018-05-13T02:28:58.016Z,14.85
2018-05-13T02:31:26.445Z,15.00
2018-05-13T02:33:55.094Z,14.65
2018-05-13T02:36:23.478Z,14.81
2018-05-13T02:38:51.781Z,14.96
2018-05-13T02:41:20.126Z,14.98
2018-05-13T02:43:48.453Z,15.03
2018-05-13T02:46:16.901Z,14.87
2018-05-13T02:48:45.246Z,14.78
2018-05-13T02:51:13.705Z,14.78
2018-05-13T02:53:42.091Z,14.82
2018-05-13T02:56:10.410Z,14.65
2018-05-13T02:58:38.926Z,14.51
2018-05-13T03:01:07.377Z,14.31
2018-05-13T03:03:35.749Z,14.40
2018-05-13T03:06:04.053Z,14.43
2018-05-13T03:08:32.400Z,14.62
2018-05-13T03:11:00.712Z,14.53
2018-05-13T03:13:29.140Z,14.36
2018-05-13T03:15:57.448Z,14.16
2018-05-13T03:18:25.962Z,14.12
2018-05-13T03:20:54.533Z,14.28
2018-05-13T03:23:23.013Z,14.31
2018-05-13T03:25:51.403Z,14.07
2018-05-13T03:28:19.807Z,14.13
2018-05-13T03:30:48.197Z,13.97
2018-05-13T03:33:16.508Z,13.69
2018-05-13T03:35:44.833Z,13.71
2018-05-13T03:38:13.129Z,13.78
2018-05-13T03:40:41.469Z,13.97
2018-05-13T03:43:09.856Z,14.05
2018-05-13T03:45:38.254Z,14.13
2018-05-13T03:48:06.577Z,14.11
2018-05-13T03:50:35.006Z,14.31
2018-05-13T03:53:03.320Z,14.15
2018-05-13T03:55:31.656Z,13.92
2018-05-13T03:57:59.967Z,13.88
2018-05-13T04:00:28.309Z,13.57
2018-05-13T04:02:56.747Z,13.51
2018-05-13T04:05:25.936Z,13.85
2018-05-13T04:11:10.989Z,14.67
2018-05-13T04:13:51.128Z,14.86
2018-05-13T04:16:19.454Z,14.36
2018-05-13T04:18:47.797Z,14.16
2018-05-13T04:21:16.141Z,14.51
2018-05-13T04:23:44.557Z,14.49
2018-05-13T04:26:12.913Z,14.34
2018-05-13T04:28:41.223Z,14.26
2018-05-13T04:31:09.523Z,14.38
2018-05-13T04:33:37.865Z,14.38
2018-05-13T04:36:06.211Z,14.70
2018-05-13T04:38:34.623Z,14.63
2018-05-13T04:41:02.951Z,14.56
2018-05-13T04:43:31.377Z,14.54
2018-05-13T04:45:59.701Z,14.41
2018-05-13T04:48:28.040Z,14.61
2018-05-13T04:50:56.358Z,14.77
2018-05-13T04:53:24.727Z,14.90
2018-05-13T04:55:53.018Z,14.86
2018-05-13T04:58:21.397Z,14.95
2018-05-13T05:00:49.709Z,15.17
2018-05-13T05:03:18.041Z,15.23
2018-05-13T05:05:46.353Z,15.23
2018-05-13T05:08:14.693Z,15.32
2018-05-13T05:10:43.026Z,15.28
2018-05-13T05:13:11.364Z,15.38
2018-05-13T05:15:39.697Z,15.33
2018-05-13T05:18:08.044Z,15.40
2018-05-13T05:20:36.440Z,15.45
2018-05-13T05:23:04.816Z,15.39
2018-05-13T05:25:33.202Z,15.54
2018-05-13T05:28:01.578Z,15.67
2018-05-13T05:30:29.955Z,15.82
2018-05-13T05:32:58.297Z,15.67
2018-05-13T05:35:26.753Z,15.76
2018-05-13T05:37:55.053Z,15.78
2018-05-13T05:40:23.378Z,15.72
2018-05-13T05:42:51.743Z,15.87
2018-05-13T05:45:20.081Z,16.05
2018-05-13T05:47:48.398Z,16.07
2018-05-13T05:50:16.738Z,16.00
2018-05-13T05:52:45.030Z,16.09
2018-05-13T05:55:13.356Z,16.31
2018-05-13T05:57:41.664Z,16.37
2018-05-13T06:00:10.078Z,16.24
2018-05-13T06:02:38.460Z,16.42
2018-05-13T06:05:06.840Z,16.31
2018-05-13T06:07:35.148Z,16.50
2018-05-13T06:10:03.492Z,16.66
2018-05-13T06:12:31.872Z,16.86
2018-05-13T06:15:00.290Z,16.60
2018-05-13T06:17:28.629Z,16.76
2018-05-13T06:19:57.047Z,17.04
2018-05-13T06:22:25.389Z,16.94
2018-05-13T06:24:53.701Z,16.85
2018-05-13T06:27:22.037Z,16.99
2018-05-13T06:29:50.417Z,17.14
2018-05-13T06:32:18.789Z,17.21
2018-05-13T06:34:47.097Z,17.24
2018-05-13T06:37:15.445Z,17.17
2018-05-13T06:39:43.885Z,17.35
2018-05-13T06:42:12.169Z,17.41
2018-05-13T06:44:40.509Z,17.24
2018-05-13T06:47:08.865Z,17.24
2018-05-13T06:49:37.171Z,17.16
2018-05-13T06:52:05.511Z,17.09
2018-05-13T06:54:33.824Z,17.14
2018-05-13T06:57:02.169Z,17.44
2018-05-13T06:59:30.482Z,17.41
2018-05-13T07:01:58.834Z,17.51
2018-05-13T07:04:27.197Z,17.47
2018-05-13T07:06:55.529Z,17.74
2018-05-13T07:09:23.858Z,17.75
2018-05-13T07:11:52.244Z,17.68
2018-05-13T07:14:20.614Z,17.91
2018-05-13T07:16:48.989Z,17.93
2018-05-13T07:19:17.354Z,18.04
2018-05-13T07:21:45.749Z,18.10
2018-05-13T07:24:14.120Z,17.86
2018-05-13T07:26:48.280Z,17.75
2018-05-13T07:29:16.612Z,18.05
2018-05-13T07:31:44.922Z,17.95
2018-05-13T07:34:13.249Z,17.94
2018-05-13T07:36:41.569Z,18.14
2018-05-13T07:39:09.921Z,18.36
2018-05-13T07:41:38.232Z,18.39
2018-05-13T07:44:06.581Z,18.47
2018-05-13T07:46:34.894Z,18.34
2018-05-13T07:49:03.237Z,18.46
2018-05-13T07:51:31.550Z,18.60
2018-05-13T07:53:59.996Z,18.80
2018-05-13T07:56:28.324Z,18.75
2018-05-13T07:58:56.758Z,18.81
2018-05-13T08:01:25.143Z,18.86
2018-05-13T08:03:53.477Z,18.90
2018-05-13T08:06:21.819Z,18.92
2018-05-13T08:08:50.162Z,18.70
2018-05-13T08:11:18.475Z,18.90
2018-05-13T08:13:46.881Z,19.21
2018-05-13T08:16:15.191Z,19.00
2018-05-13T08:18:43.522Z,19.25
2018-05-13T08:21:11.907Z,19.24
2018-05-13T08:23:40.226Z,19.47
2018-05-13T08:26:08.578Z,19.43
2018-05-13T08:28:36.894Z,19.42
2018-05-13T08:31:05.235Z,19.51
2018-05-13T08:33:33.558Z,19.30
2018-05-13T08:36:01.938Z,19.29
2018-05-13T08:38:30.246Z,19.48
2018-05-13T08:40:58.572Z,19.44
2018-05-13T08:43:26.907Z,19.72
2018-05-13T08:45:55.245Z,19.67
2018-05-13T08:48:23.639Z,19.78
2018-05-13T08:50:51.901Z,19.72
2018-05-13T08:53:20.237Z,19.88
2018-05-13T08:55:48.572Z,20.21
2018-05-13T08:58:16.898Z,20.11
2018-05-13T09:00:45.239Z,19.87
2018-05-13T09:03:13.553Z,20.07
2018-05-13T09:05:41.898Z,20.11
2018-05-13T09:08:10.248Z,20.30
2018-05-13T09:10:38.657Z,20.40
2018-05-13T09:13:06.993Z,20.36
2018-05-13T09:15:35.314Z,20.44
2018-05-13T09:18:03.634Z,20.47
2018-05-13T09:20:32.089Z,20.77
2018-05-13T09:23:00.392Z,20.76
2018-05-13T09:25:28.761Z,20.63
2018-05-13T09:27:57.147Z,20.69
2018-05-13T09:30:25.464Z,20.74
2018-05-13T09:32:53.816Z,20.99
2018-05-13T09:35:22.097Z,21.38
2018-05-13T09:37:50.445Z,21.17
2018-05-13T09:40:19.432Z,21.08
2018-05-13T09:42:47.777Z,21.44
2018-05-13T09:45:16.210Z,21.84
2018-05-13T09:47:44.667Z,21.54
2018-05-13T09:50:13.052Z,21.68
2018-05-13T09:52:41.364Z,21.40
2018-05-13T09:55:09.692Z,21.59
2018-05-13T09:57:38.130Z,21.78
2018-05-13T10:00:06.372Z,21.83
2018-05-13T10:02:34.772Z,21.91
2018-05-13T10:05:03.109Z,21.93
2018-05-13T10:07:31.441Z,22.30
2018-05-13T10:09:59.846Z,22.04
2018-05-13T10:12:28.095Z,21.94
2018-05-13T10:14:56.437Z,22.24
2018-05-13T10:17:24.811Z,22.17
2018-05-13T10:19:53.192Z,22.41
2018-05-13T10:22:21.566Z,22.41
2018-05-13T10:24:49.896Z,22.64
2018-05-13T10:27:18.232Z,22.38
2018-05-13T10:29:46.693Z,22.38
2018-05-13T10:32:15.073Z,22.48
2018-05-13T10:34:43.401Z,22.77
2018-05-13T10:37:11.732Z,22.76
2018-05-13T10:39:40.058Z,22.67
2018-05-13T10:42:08.426Z,22.58
2018-05-13T10:44:36.718Z,22.86
2018-05-13T10:47:05.058Z,22.92
2018-05-13T10:49:33.409Z,22.92
2018-05-13T10:52:01.838Z,23.44
2018-05-13T10:54:30.139Z,23.22
2018-05-13T10:56:58.557Z,23.43
2018-05-13T10:59:26.932Z,23.42
2018-05-13T11:01:55.282Z,23.43
2018-05-13T11:04:23.593Z,23.93
2018-05-13T11:06:51.924Z,24.56
2018-05-13T11:09:20.338Z,24.65
2018-05-13T11:11:48.684Z,24.65
2018-05-13T11:14:17.006Z,25.29
2018-05-13T11:16:45.318Z,25.47
2018-05-13T11:19:13.856Z,24.50
2018-05-13T11:21:42.240Z,23.86
2018-05-13T11:24:10.574Z,23.80
2018-05-13T11:26:38.993Z,23.47
2018-05-13T11:29:07.379Z,23.34
2018-05-13T11:31:35.751Z,23.63
2018-05-13T11:34:04.131Z,24.39
2018-05-13T11:36:32.445Z,24.62
2018-05-13T11:39:00.787Z,25.46
2018-05-13T11:41:29.101Z,24.79
2018-05-13T11:43:57.536Z,24.61
2018-05-13T11:46:25.857Z,25.29
2018-05-13T11:48:54.196Z,26.46
2018-05-13T11:51:22.574Z,27.42
2018-05-13T11:53:50.948Z,27.34
2018-05-13T11:56:19.271Z,27.65
2018-05-13T11:58:47.610Z,28.64
2018-05-13T12:01:15.926Z,28.72
2018-05-13T12:03:44.238Z,28.76
2018-05-13T12:06:12.582Z,26.66
2018-05-13T12:08:40.899Z,25.31
2018-05-13T12:11:09.290Z,24.85
2018-05-13T12:13:37.598Z,25.11
2018-05-13T12:16:05.933Z,25.04
2018-05-13T12:18:34.369Z,26.56
2018-05-13T12:21:02.779Z,28.07
2018-05-13T12:23:31.081Z,29.43
2018-05-13T12:25:59.472Z,29.68
2018-05-13T12:28:27.845Z,30.66
2018-05-13T12:30:56.237Z,30.84
2018-05-13T12:33:24.542Z,31.20
2018-05-13T12:35:52.892Z,31.39
2018-05-13T12:38:21.219Z,31.07
2018-05-13T12:40:49.618Z,30.49
2018-05-13T12:43:17.933Z,31.41
2018-05-13T12:45:46.254Z,31.13
2018-05-13T12:48:14.606Z,31.50
2018-05-13T12:50:42.905Z,30.67
2018-05-13T12:53:11.355Z,31.65
2018-05-13T12:55:39.679Z,29.57
2018-05-13T12:58:08.012Z,30.58
2018-05-13T13:00:36.337Z,30.03
2018-05-13T13:03:04.676Z,27.86
2018-05-13T13:05:32.984Z,27.21
2018-05-13T13:08:01.316Z,27.18
2018-05-13T13:10:29.656Z,30.17
2018-05-13T13:12:58.021Z,30.80
2018-05-13T13:15:26.408Z,29.08
2018-05-13T13:17:54.829Z,27.61
2018-05-13T13:20:23.117Z,27.10
2018-05-13T13:22:51.477Z,27.30
2018-05-13T13:25:19.799Z,29.60
2018-05-13T13:27:48.195Z,31.29
2018-05-13T13:30:16.506Z,30.42
2018-05-13T13:32:44.855Z,30.62
2018-05-13T13:35:13.169Z,31.65
2018-05-13T13:37:41.560Z,32.56
2018-05-13T13:40:09.925Z,29.86
2018-05-13T13:42:38.216Z,30.61
2018-05-13T13:45:06.644Z,31.17
2018-05-13T13:47:34.954Z,31.52
2018-05-13T13:50:03.396Z,30.08
2018-05-13T13:52:31.784Z,30.95
2018-05-13T13:55:00.152Z,32.13
2018-05-13T13:57:29.262Z,32.36
2018-05-13T13:59:57.627Z,32.52
2018-05-13T14:02:26.008Z,32.47
2018-05-13T14:04:54.382Z,32.21
2018-05-13T14:07:22.694Z,33.80
2018-05-13T14:09:51.042Z,33.13
2018-05-13T14:12:19.349Z,33.13
2018-05-13T14:14:47.697Z,32.92
2018-05-13T14:17:16.117Z,33.51
2018-05-13T14:19:44.457Z,33.60
2018-05-13T14:22:12.781Z,34.08
2018-05-13T14:24:41.110Z,33.55
2018-05-13T14:27:09.488Z,33.46
2018-05-13T14:29:37.817Z,33.47
2018-05-13T14:32:06.236Z,35.02
2018-05-13T14:34:34.587Z,35.47
2018-05-13T14:37:02.988Z,35.12
2018-05-13T14:39:31.310Z,35.02
2018-05-13T14:41:59.749Z,33.63
2018-05-13T14:44:28.134Z,30.51
2018-05-13T14:46:56.505Z,29.45
2018-05-13T14:49:24.811Z,27.81
2018-05-13T14:51:53.141Z,27.41
2018-05-13T14:54:21.481Z,27.41
2018-05-13T14:56:49.837Z,27.20
2018-05-13T14:59:18.193Z,27.02
2018-05-13T15:01:46.529Z,26.57
2018-05-13T15:04:14.906Z,26.34
2018-05-13T15:06:43.237Z,26.33
2018-05-13T15:09:11.611Z,26.00
2018-05-13T15:11:40.022Z,25.88
2018-05-13T15:14:08.375Z,25.75
2018-05-13T15:16:36.853Z,25.55
2018-05-13T15:19:05.121Z,25.54
2018-05-13T15:21:33.486Z,25.58
2018-05-13T15:24:01.830Z,25.06
